sensor_id;sensor_type;location;lat;lon;timestamp;P1;durP1;ratioP1;P2;durP2;ratioP2
52456;SDS011;38369;52.840;7.082;2023-07-09T00:01:41;10.18;;;7.32;;
52456;SDS011;38369;52.840;7.082;2023-07-09T00:04:11;11.93;;;7.60;;
52456;SDS011;38369;52.840;7.082;2023-07-09T00:06:37;9.23;;;6.40;;
52456;SDS011;38369;52.840;7.082;2023-07-09T00:09:04;10.07;;;6.35;;
52456;SDS011;38369;52.840;7.082;2023-07-09T00:11:30;8.48;;;6.63;;
52456;SDS011;38369;52.840;7.082;2023-07-09T00:13:56;7.30;;;6.25;;
52456;SDS011;38369;52.840;7.082;2023-07-09T00:16:25;9.48;;;7.10;;
52456;SDS011;38369;52.840;7.082;2023-07-09T00:18:51;12.55;;;6.88;;
52456;SDS011;38369;52.840;7.082;2023-07-09T00:21:18;7.30;;;6.13;;
52456;SDS011;38369;52.840;7.082;2023-07-09T00:26:14;8.52;;;6.95;;
52456;SDS011;38369;52.840;7.082;2023-07-09T00:28:43;10.30;;;8.43;;
52456;SDS011;38369;52.840;7.082;2023-07-09T00:31:15;7.30;;;6.28;;
52456;SDS011;38369;52.840;7.082;2023-07-09T00:33:44;9.90;;;6.82;;
52456;SDS011;38369;52.840;7.082;2023-07-09T00:36:15;10.75;;;6.80;;
52456;SDS011;38369;52.840;7.082;2023-07-09T00:38:41;9.55;;;6.75;;
52456;SDS011;38369;52.840;7.082;2023-07-09T00:41:17;9.63;;;6.88;;
52456;SDS011;38369;52.840;7.082;2023-07-09T00:43:44;8.40;;;6.43;;
52456;SDS011;38369;52.840;7.082;2023-07-09T00:46:16;8.30;;;6.60;;
52456;SDS011;38369;52.840;7.082;2023-07-09T00:48:43;7.45;;;6.65;;
52456;SDS011;38369;52.840;7.082;2023-07-09T00:51:11;9.23;;;6.80;;
52456;SDS011;38369;52.840;7.082;2023-07-09T00:53:38;11.48;;;6.97;;
52456;SDS011;38369;52.840;7.082;2023-07-09T00:56:11;12.13;;;7.85;;
52456;SDS011;38369;52.840;7.082;2023-07-09T00:58:39;10.27;;;7.30;;
52456;SDS011;38369;52.840;7.082;2023-07-09T01:01:08;10.52;;;7.28;;
52456;SDS011;38369;52.840;7.082;2023-07-09T01:03:37;7.88;;;6.35;;
52456;SDS011;38369;52.840;7.082;2023-07-09T01:06:07;9.07;;;6.32;;
52456;SDS011;38369;52.840;7.082;2023-07-09T01:08:35;11.02;;;6.95;;
52456;SDS011;38369;52.840;7.082;2023-07-09T01:11:01;9.68;;;7.10;;
52456;SDS011;38369;52.840;7.082;2023-07-09T01:13:28;10.38;;;7.28;;
52456;SDS011;38369;52.840;7.082;2023-07-09T01:15:55;12.07;;;7.72;;
52456;SDS011;38369;52.840;7.082;2023-07-09T01:18:21;10.82;;;7.63;;
52456;SDS011;38369;52.840;7.082;2023-07-09T01:20:50;10.52;;;7.05;;
52456;SDS011;38369;52.840;7.082;2023-07-09T01:23:17;13.05;;;7.85;;
52456;SDS011;38369;52.840;7.082;2023-07-09T01:25:46;11.57;;;7.15;;
52456;SDS011;38369;52.840;7.082;2023-07-09T01:28:19;11.38;;;7.47;;
52456;SDS011;38369;52.840;7.082;2023-07-09T01:30:45;10.68;;;6.90;;
52456;SDS011;38369;52.840;7.082;2023-07-09T01:33:18;8.93;;;7.20;;
52456;SDS011;38369;52.840;7.082;2023-07-09T01:35:44;10.82;;;8.15;;
52456;SDS011;38369;52.840;7.082;2023-07-09T01:38:11;7.80;;;6.72;;
52456;SDS011;38369;52.840;7.082;2023-07-09T01:40:37;9.40;;;7.18;;
52456;SDS011;38369;52.840;7.082;2023-07-09T01:43:04;9.40;;;7.45;;
52456;SDS011;38369;52.840;7.082;2023-07-09T01:45:31;10.50;;;7.20;;
52456;SDS011;38369;52.840;7.082;2023-07-09T01:47:58;9.10;;;7.10;;
52456;SDS011;38369;52.840;7.082;2023-07-09T01:50:24;12.80;;;7.18;;
52456;SDS011;38369;52.840;7.082;2023-07-09T01:52:52;10.10;;;7.70;;
52456;SDS011;38369;52.840;7.082;2023-07-09T01:55:18;9.00;;;7.03;;
52456;SDS011;38369;52.840;7.082;2023-07-09T01:57:44;11.93;;;7.28;;
52456;SDS011;38369;52.840;7.082;2023-07-09T02:00:12;10.25;;;8.18;;
52456;SDS011;38369;52.840;7.082;2023-07-09T02:02:39;9.32;;;7.88;;
52456;SDS011;38369;52.840;7.082;2023-07-09T02:05:08;9.52;;;7.88;;
52456;SDS011;38369;52.840;7.082;2023-07-09T02:07:34;9.82;;;7.25;;
52456;SDS011;38369;52.840;7.082;2023-07-09T02:10:00;7.78;;;6.97;;
52456;SDS011;38369;52.840;7.082;2023-07-09T02:12:26;9.02;;;7.45;;
52456;SDS011;38369;52.840;7.082;2023-07-09T02:14:52;10.48;;;7.90;;
52456;SDS011;38369;52.840;7.082;2023-07-09T02:17:18;8.40;;;7.60;;
52456;SDS011;38369;52.840;7.082;2023-07-09T02:19:44;9.05;;;7.05;;
52456;SDS011;38369;52.840;7.082;2023-07-09T02:22:11;11.50;;;8.73;;
52456;SDS011;38369;52.840;7.082;2023-07-09T02:24:37;9.55;;;7.47;;
52456;SDS011;38369;52.840;7.082;2023-07-09T02:27:04;9.05;;;7.50;;
52456;SDS011;38369;52.840;7.082;2023-07-09T02:29:31;9.73;;;7.47;;
52456;SDS011;38369;52.840;7.082;2023-07-09T02:31:58;9.85;;;7.38;;
52456;SDS011;38369;52.840;7.082;2023-07-09T02:34:25;9.98;;;8.55;;
52456;SDS011;38369;52.840;7.082;2023-07-09T02:36:52;10.65;;;7.80;;
52456;SDS011;38369;52.840;7.082;2023-07-09T02:39:18;11.18;;;8.00;;
52456;SDS011;38369;52.840;7.082;2023-07-09T02:41:44;11.07;;;7.60;;
52456;SDS011;38369;52.840;7.082;2023-07-09T02:44:10;9.90;;;7.28;;
52456;SDS011;38369;52.840;7.082;2023-07-09T02:46:37;9.15;;;7.78;;
52456;SDS011;38369;52.840;7.082;2023-07-09T02:49:03;12.23;;;7.47;;
52456;SDS011;38369;52.840;7.082;2023-07-09T02:51:30;10.60;;;8.35;;
52456;SDS011;38369;52.840;7.082;2023-07-09T02:53:56;9.07;;;7.47;;
52456;SDS011;38369;52.840;7.082;2023-07-09T02:56:23;10.27;;;6.97;;
52456;SDS011;38369;52.840;7.082;2023-07-09T02:58:49;7.78;;;6.95;;
52456;SDS011;38369;52.840;7.082;2023-07-09T03:01:16;8.45;;;7.47;;
52456;SDS011;38369;52.840;7.082;2023-07-09T03:03:42;10.90;;;7.40;;
52456;SDS011;38369;52.840;7.082;2023-07-09T03:06:08;11.73;;;7.70;;
52456;SDS011;38369;52.840;7.082;2023-07-09T03:08:34;12.68;;;7.55;;
52456;SDS011;38369;52.840;7.082;2023-07-09T03:11:08;9.55;;;7.80;;
52456;SDS011;38369;52.840;7.082;2023-07-09T03:13:34;10.95;;;7.93;;
52456;SDS011;38369;52.840;7.082;2023-07-09T03:16:00;9.50;;;7.68;;
52456;SDS011;38369;52.840;7.082;2023-07-09T03:18:26;10.60;;;7.95;;
52456;SDS011;38369;52.840;7.082;2023-07-09T03:20:53;9.65;;;7.15;;
52456;SDS011;38369;52.840;7.082;2023-07-09T03:23:19;10.23;;;7.43;;
52456;SDS011;38369;52.840;7.082;2023-07-09T03:25:45;10.48;;;7.85;;
52456;SDS011;38369;52.840;7.082;2023-07-09T03:28:11;10.93;;;7.72;;
52456;SDS011;38369;52.840;7.082;2023-07-09T03:30:41;9.82;;;7.43;;
52456;SDS011;38369;52.840;7.082;2023-07-09T03:33:07;9.40;;;8.43;;
52456;SDS011;38369;52.840;7.082;2023-07-09T03:35:33;9.07;;;7.45;;
52456;SDS011;38369;52.840;7.082;2023-07-09T03:38:00;10.30;;;7.72;;
52456;SDS011;38369;52.840;7.082;2023-07-09T03:40:26;10.82;;;8.27;;
52456;SDS011;38369;52.840;7.082;2023-07-09T03:42:52;12.00;;;9.00;;
52456;SDS011;38369;52.840;7.082;2023-07-09T03:45:18;9.30;;;8.00;;
52456;SDS011;38369;52.840;7.082;2023-07-09T03:47:44;9.57;;;8.38;;
52456;SDS011;38369;52.840;7.082;2023-07-09T03:50:10;8.90;;;7.50;;
52456;SDS011;38369;52.840;7.082;2023-07-09T03:52:37;10.43;;;8.50;;
52456;SDS011;38369;52.840;7.082;2023-07-09T03:55:03;12.63;;;8.55;;
52456;SDS011;38369;52.840;7.082;2023-07-09T03:57:30;12.35;;;8.77;;
52456;SDS011;38369;52.840;7.082;2023-07-09T03:59:56;11.52;;;7.95;;
52456;SDS011;38369;52.840;7.082;2023-07-09T04:02:22;10.25;;;8.00;;
52456;SDS011;38369;52.840;7.082;2023-07-09T04:04:48;12.35;;;8.02;;
52456;SDS011;38369;52.840;7.082;2023-07-09T04:07:14;11.85;;;8.23;;
52456;SDS011;38369;52.840;7.082;2023-07-09T04:09:41;13.23;;;8.07;;
52456;SDS011;38369;52.840;7.082;2023-07-09T04:12:07;8.73;;;7.80;;
52456;SDS011;38369;52.840;7.082;2023-07-09T04:14:34;11.25;;;7.80;;
52456;SDS011;38369;52.840;7.082;2023-07-09T04:17:00;12.40;;;9.45;;
52456;SDS011;38369;52.840;7.082;2023-07-09T04:19:26;11.50;;;8.73;;
52456;SDS011;38369;52.840;7.082;2023-07-09T04:21:53;10.93;;;9.30;;
52456;SDS011;38369;52.840;7.082;2023-07-09T04:24:19;11.30;;;9.82;;
52456;SDS011;38369;52.840;7.082;2023-07-09T04:26:45;11.70;;;9.75;;
52456;SDS011;38369;52.840;7.082;2023-07-09T04:29:12;14.05;;;10.50;;
52456;SDS011;38369;52.840;7.082;2023-07-09T04:31:39;11.98;;;9.52;;
52456;SDS011;38369;52.840;7.082;2023-07-09T04:34:05;16.17;;;11.13;;
52456;SDS011;38369;52.840;7.082;2023-07-09T04:36:32;14.68;;;9.75;;
52456;SDS011;38369;52.840;7.082;2023-07-09T04:38:59;13.07;;;10.85;;
52456;SDS011;38369;52.840;7.082;2023-07-09T04:41:25;11.43;;;9.90;;
52456;SDS011;38369;52.840;7.082;2023-07-09T04:43:51;12.43;;;9.35;;
52456;SDS011;38369;52.840;7.082;2023-07-09T04:46:17;13.82;;;10.80;;
52456;SDS011;38369;52.840;7.082;2023-07-09T04:48:43;15.55;;;10.68;;
52456;SDS011;38369;52.840;7.082;2023-07-09T04:51:09;15.18;;;10.57;;
52456;SDS011;38369;52.840;7.082;2023-07-09T04:53:35;13.30;;;10.85;;
52456;SDS011;38369;52.840;7.082;2023-07-09T04:56:01;16.77;;;11.40;;
52456;SDS011;38369;52.840;7.082;2023-07-09T04:58:28;19.80;;;11.43;;
52456;SDS011;38369;52.840;7.082;2023-07-09T05:00:58;12.88;;;9.88;;
52456;SDS011;38369;52.840;7.082;2023-07-09T05:05:50;14.45;;;10.52;;
52456;SDS011;38369;52.840;7.082;2023-07-09T05:08:16;13.20;;;9.77;;
52456;SDS011;38369;52.840;7.082;2023-07-09T05:10:46;13.43;;;9.88;;
52456;SDS011;38369;52.840;7.082;2023-07-09T05:13:13;11.45;;;10.25;;
52456;SDS011;38369;52.840;7.082;2023-07-09T05:15:40;11.95;;;10.60;;
52456;SDS011;38369;52.840;7.082;2023-07-09T05:18:06;14.23;;;9.88;;
52456;SDS011;38369;52.840;7.082;2023-07-09T05:20:33;14.70;;;9.75;;
52456;SDS011;38369;52.840;7.082;2023-07-09T05:22:59;11.98;;;10.68;;
52456;SDS011;38369;52.840;7.082;2023-07-09T05:25:25;11.63;;;9.52;;
52456;SDS011;38369;52.840;7.082;2023-07-09T05:27:51;17.70;;;10.43;;
52456;SDS011;38369;52.840;7.082;2023-07-09T05:30:18;13.20;;;10.65;;
52456;SDS011;38369;52.840;7.082;2023-07-09T05:32:44;17.92;;;10.60;;
52456;SDS011;38369;52.840;7.082;2023-07-09T05:35:10;12.38;;;10.93;;
52456;SDS011;38369;52.840;7.082;2023-07-09T05:37:36;11.35;;;10.15;;
52456;SDS011;38369;52.840;7.082;2023-07-09T05:40:03;10.57;;;9.57;;
52456;SDS011;38369;52.840;7.082;2023-07-09T05:42:30;10.65;;;9.30;;
52456;SDS011;38369;52.840;7.082;2023-07-09T05:44:56;11.65;;;9.73;;
52456;SDS011;38369;52.840;7.082;2023-07-09T05:47:23;12.65;;;9.80;;
52456;SDS011;38369;52.840;7.082;2023-07-09T05:49:49;10.52;;;9.43;;
52456;SDS011;38369;52.840;7.082;2023-07-09T05:52:16;11.43;;;9.73;;
52456;SDS011;38369;52.840;7.082;2023-07-09T05:54:42;12.10;;;8.82;;
52456;SDS011;38369;52.840;7.082;2023-07-09T05:57:09;10.18;;;8.82;;
52456;SDS011;38369;52.840;7.082;2023-07-09T05:59:35;9.70;;;8.70;;
52456;SDS011;38369;52.840;7.082;2023-07-09T06:02:01;11.82;;;9.45;;
52456;SDS011;38369;52.840;7.082;2023-07-09T06:04:28;12.27;;;9.30;;
52456;SDS011;38369;52.840;7.082;2023-07-09T06:06:56;12.70;;;8.00;;
52456;SDS011;38369;52.840;7.082;2023-07-09T06:09:22;11.02;;;8.73;;
52456;SDS011;38369;52.840;7.082;2023-07-09T06:11:48;10.32;;;8.85;;
52456;SDS011;38369;52.840;7.082;2023-07-09T06:14:14;10.90;;;8.73;;
52456;SDS011;38369;52.840;7.082;2023-07-09T06:16:42;9.82;;;8.32;;
52456;SDS011;38369;52.840;7.082;2023-07-09T06:19:08;12.60;;;8.52;;
52456;SDS011;38369;52.840;7.082;2023-07-09T06:21:35;11.43;;;8.45;;
52456;SDS011;38369;52.840;7.082;2023-07-09T06:24:01;15.48;;;8.35;;
52456;SDS011;38369;52.840;7.082;2023-07-09T06:26:27;12.05;;;7.78;;
52456;SDS011;38369;52.840;7.082;2023-07-09T06:28:53;11.48;;;7.75;;
52456;SDS011;38369;52.840;7.082;2023-07-09T06:31:19;9.90;;;7.53;;
52456;SDS011;38369;52.840;7.082;2023-07-09T06:33:47;10.95;;;8.45;;
52456;SDS011;38369;52.840;7.082;2023-07-09T06:36:13;12.88;;;8.85;;
52456;SDS011;38369;52.840;7.082;2023-07-09T06:38:39;11.02;;;8.65;;
52456;SDS011;38369;52.840;7.082;2023-07-09T06:41:05;14.00;;;8.75;;
52456;SDS011;38369;52.840;7.082;2023-07-09T06:43:31;11.13;;;8.32;;
52456;SDS011;38369;52.840;7.082;2023-07-09T06:45:58;11.40;;;8.68;;
52456;SDS011;38369;52.840;7.082;2023-07-09T06:48:25;12.63;;;10.07;;
52456;SDS011;38369;52.840;7.082;2023-07-09T06:50:52;15.60;;;9.48;;
52456;SDS011;38369;52.840;7.082;2023-07-09T06:53:19;10.57;;;8.93;;
52456;SDS011;38369;52.840;7.082;2023-07-09T06:55:46;10.98;;;8.50;;
52456;SDS011;38369;52.840;7.082;2023-07-09T06:58:14;13.82;;;8.57;;
52456;SDS011;38369;52.840;7.082;2023-07-09T07:00:41;11.65;;;8.50;;
52456;SDS011;38369;52.840;7.082;2023-07-09T07:03:07;12.77;;;7.82;;
52456;SDS011;38369;52.840;7.082;2023-07-09T07:05:34;12.25;;;8.98;;
52456;SDS011;38369;52.840;7.082;2023-07-09T07:08:01;13.02;;;8.40;;
52456;SDS011;38369;52.840;7.082;2023-07-09T07:10:27;11.95;;;7.95;;
52456;SDS011;38369;52.840;7.082;2023-07-09T07:12:53;10.80;;;8.07;;
52456;SDS011;38369;52.840;7.082;2023-07-09T07:15:20;10.75;;;8.52;;
52456;SDS011;38369;52.840;7.082;2023-07-09T07:17:46;11.80;;;8.40;;
52456;SDS011;38369;52.840;7.082;2023-07-09T07:20:12;10.90;;;7.88;;
52456;SDS011;38369;52.840;7.082;2023-07-09T07:22:39;10.55;;;7.53;;
52456;SDS011;38369;52.840;7.082;2023-07-09T07:25:05;11.77;;;8.40;;
52456;SDS011;38369;52.840;7.082;2023-07-09T07:27:33;11.50;;;7.63;;
52456;SDS011;38369;52.840;7.082;2023-07-09T07:29:59;11.30;;;8.55;;
52456;SDS011;38369;52.840;7.082;2023-07-09T07:32:26;11.40;;;7.25;;
52456;SDS011;38369;52.840;7.082;2023-07-09T07:34:52;10.50;;;8.45;;
52456;SDS011;38369;52.840;7.082;2023-07-09T07:37:19;9.13;;;7.75;;
52456;SDS011;38369;52.840;7.082;2023-07-09T07:39:46;10.45;;;7.75;;
52456;SDS011;38369;52.840;7.082;2023-07-09T07:42:12;9.18;;;7.55;;
52456;SDS011;38369;52.840;7.082;2023-07-09T07:44:38;10.93;;;6.88;;
52456;SDS011;38369;52.840;7.082;2023-07-09T07:47:05;9.65;;;7.97;;
52456;SDS011;38369;52.840;7.082;2023-07-09T07:49:31;11.55;;;7.22;;
52456;SDS011;38369;52.840;7.082;2023-07-09T07:51:57;9.57;;;7.53;;
52456;SDS011;38369;52.840;7.082;2023-07-09T07:54:23;10.35;;;7.47;;
52456;SDS011;38369;52.840;7.082;2023-07-09T07:56:50;11.13;;;7.47;;
52456;SDS011;38369;52.840;7.082;2023-07-09T07:59:17;12.52;;;7.55;;
52456;SDS011;38369;52.840;7.082;2023-07-09T08:01:43;9.75;;;7.82;;
52456;SDS011;38369;52.840;7.082;2023-07-09T08:04:09;10.80;;;7.97;;
52456;SDS011;38369;52.840;7.082;2023-07-09T08:06:35;11.32;;;7.80;;
52456;SDS011;38369;52.840;7.082;2023-07-09T08:09:01;13.48;;;7.47;;
52456;SDS011;38369;52.840;7.082;2023-07-09T08:11:27;10.32;;;7.88;;
52456;SDS011;38369;52.840;7.082;2023-07-09T08:13:54;8.35;;;7.15;;
52456;SDS011;38369;52.840;7.082;2023-07-09T08:16:21;12.98;;;8.18;;
52456;SDS011;38369;52.840;7.082;2023-07-09T08:18:47;9.13;;;6.60;;
52456;SDS011;38369;52.840;7.082;2023-07-09T08:21:13;11.60;;;8.77;;
52456;SDS011;38369;52.840;7.082;2023-07-09T08:23:39;10.60;;;7.50;;
52456;SDS011;38369;52.840;7.082;2023-07-09T08:26:05;11.35;;;7.88;;
52456;SDS011;38369;52.840;7.082;2023-07-09T08:28:31;8.30;;;7.40;;
52456;SDS011;38369;52.840;7.082;2023-07-09T08:30:57;8.65;;;7.20;;
52456;SDS011;38369;52.840;7.082;2023-07-09T08:33:24;13.73;;;6.78;;
52456;SDS011;38369;52.840;7.082;2023-07-09T08:35:50;7.63;;;6.72;;
52456;SDS011;38369;52.840;7.082;2023-07-09T08:38:16;9.65;;;7.47;;
52456;SDS011;38369;52.840;7.082;2023-07-09T08:46:18;9.38;;;6.13;;
52456;SDS011;38369;52.840;7.082;2023-07-09T08:48:46;10.77;;;7.63;;
52456;SDS011;38369;52.840;7.082;2023-07-09T08:53:48;13.65;;;7.80;;
52456;SDS011;38369;52.840;7.082;2023-07-09T08:56:15;11.20;;;6.82;;
52456;SDS011;38369;52.840;7.082;2023-07-09T08:58:41;15.18;;;7.90;;
52456;SDS011;38369;52.840;7.082;2023-07-09T09:01:14;10.32;;;7.35;;
52456;SDS011;38369;52.840;7.082;2023-07-09T09:06:10;13.43;;;7.60;;
52456;SDS011;38369;52.840;7.082;2023-07-09T09:08:41;10.80;;;7.00;;
52456;SDS011;38369;52.840;7.082;2023-07-09T09:13:35;10.20;;;7.85;;
52456;SDS011;38369;52.840;7.082;2023-07-09T09:16:04;11.95;;;6.82;;
52456;SDS011;38369;52.840;7.082;2023-07-09T09:18:34;10.70;;;7.25;;
52456;SDS011;38369;52.840;7.082;2023-07-09T09:21:05;10.65;;;7.85;;
52456;SDS011;38369;52.840;7.082;2023-07-09T09:23:38;10.98;;;7.10;;
52456;SDS011;38369;52.840;7.082;2023-07-09T09:26:07;9.10;;;7.50;;
52456;SDS011;38369;52.840;7.082;2023-07-09T09:28:35;11.07;;;6.47;;
52456;SDS011;38369;52.840;7.082;2023-07-09T09:31:01;9.75;;;6.35;;
52456;SDS011;38369;52.840;7.082;2023-07-09T09:33:35;7.00;;;5.63;;
52456;SDS011;38369;52.840;7.082;2023-07-09T09:36:02;9.35;;;6.60;;
52456;SDS011;38369;52.840;7.082;2023-07-09T09:38:29;10.20;;;6.63;;
52456;SDS011;38369;52.840;7.082;2023-07-09T09:40:59;10.13;;;6.13;;
52456;SDS011;38369;52.840;7.082;2023-07-09T09:43:31;9.07;;;6.63;;
52456;SDS011;38369;52.840;7.082;2023-07-09T09:45:58;9.63;;;5.78;;
52456;SDS011;38369;52.840;7.082;2023-07-09T09:48:31;8.93;;;6.15;;
52456;SDS011;38369;52.840;7.082;2023-07-09T09:50:58;13.10;;;7.03;;
52456;SDS011;38369;52.840;7.082;2023-07-09T09:53:29;7.13;;;5.90;;
52456;SDS011;38369;52.840;7.082;2023-07-09T09:55:55;8.18;;;5.90;;
52456;SDS011;38369;52.840;7.082;2023-07-09T09:58:27;8.30;;;5.50;;
52456;SDS011;38369;52.840;7.082;2023-07-09T10:00:55;8.45;;;5.72;;
52456;SDS011;38369;52.840;7.082;2023-07-09T10:03:21;7.60;;;5.57;;
52456;SDS011;38369;52.840;7.082;2023-07-09T10:05:50;7.32;;;5.35;;
52456;SDS011;38369;52.840;7.082;2023-07-09T10:08:23;8.10;;;5.25;;
52456;SDS011;38369;52.840;7.082;2023-07-09T10:10:51;11.38;;;6.28;;
52456;SDS011;38369;52.840;7.082;2023-07-09T10:13:31;6.88;;;5.63;;
52456;SDS011;38369;52.840;7.082;2023-07-09T10:21:55;7.88;;;5.82;;
52456;SDS011;38369;52.840;7.082;2023-07-09T10:34:51;10.65;;;5.03;;
52456;SDS011;38369;52.840;7.082;2023-07-09T10:37:27;8.60;;;5.20;;
52456;SDS011;38369;52.840;7.082;2023-07-09T10:39:59;8.65;;;5.22;;
52456;SDS011;38369;52.840;7.082;2023-07-09T10:44:55;7.70;;;5.03;;
52456;SDS011;38369;52.840;7.082;2023-07-09T10:49:49;9.20;;;5.55;;
52456;SDS011;38369;52.840;7.082;2023-07-09T10:55:14;7.03;;;5.63;;
52456;SDS011;38369;52.840;7.082;2023-07-09T11:00:20;9.10;;;5.10;;
52456;SDS011;38369;52.840;7.082;2023-07-09T11:02:48;7.97;;;5.18;;
52456;SDS011;38369;52.840;7.082;2023-07-09T11:05:18;7.03;;;5.50;;
52456;SDS011;38369;52.840;7.082;2023-07-09T11:10:25;8.60;;;5.15;;
52456;SDS011;38369;52.840;7.082;2023-07-09T11:13:15;6.93;;;4.75;;
52456;SDS011;38369;52.840;7.082;2023-07-09T11:15:42;7.45;;;4.75;;
52456;SDS011;38369;52.840;7.082;2023-07-09T11:18:11;8.85;;;5.20;;
52456;SDS011;38369;52.840;7.082;2023-07-09T11:20:42;7.97;;;4.43;;
52456;SDS011;38369;52.840;7.082;2023-07-09T11:23:19;9.20;;;5.20;;
52456;SDS011;38369;52.840;7.082;2023-07-09T11:25:46;8.70;;;4.60;;
52456;SDS011;38369;52.840;7.082;2023-07-09T11:28:13;7.47;;;4.60;;
52456;SDS011;38369;52.840;7.082;2023-07-09T11:33:31;5.90;;;3.67;;
52456;SDS011;38369;52.840;7.082;2023-07-09T11:36:12;5.28;;;4.15;;
52456;SDS011;38369;52.840;7.082;2023-07-09T11:38:44;5.35;;;3.90;;
52456;SDS011;38369;52.840;7.082;2023-07-09T11:44:03;6.55;;;4.25;;
52456;SDS011;38369;52.840;7.082;2023-07-09T11:46:30;7.30;;;3.70;;
52456;SDS011;38369;52.840;7.082;2023-07-09T11:48:57;8.07;;;4.20;;
52456;SDS011;38369;52.840;7.082;2023-07-09T11:51:28;6.70;;;4.05;;
52456;SDS011;38369;52.840;7.082;2023-07-09T11:53:55;5.93;;;3.63;;
52456;SDS011;38369;52.840;7.082;2023-07-09T11:56:22;5.68;;;4.15;;
52456;SDS011;38369;52.840;7.082;2023-07-09T11:58:55;5.60;;;4.25;;
52456;SDS011;38369;52.840;7.082;2023-07-09T12:01:23;5.47;;;3.60;;
52456;SDS011;38369;52.840;7.082;2023-07-09T12:03:50;6.75;;;3.55;;
52456;SDS011;38369;52.840;7.082;2023-07-09T12:06:23;6.93;;;3.72;;
52456;SDS011;38369;52.840;7.082;2023-07-09T12:08:50;7.63;;;4.00;;
52456;SDS011;38369;52.840;7.082;2023-07-09T12:11:20;6.00;;;4.10;;
52456;SDS011;38369;52.840;7.082;2023-07-09T12:13:47;5.70;;;3.78;;
52456;SDS011;38369;52.840;7.082;2023-07-09T12:16:20;7.55;;;3.88;;
52456;SDS011;38369;52.840;7.082;2023-07-09T12:18:46;5.60;;;4.00;;
52456;SDS011;38369;52.840;7.082;2023-07-09T12:21:12;7.28;;;3.38;;
52456;SDS011;38369;52.840;7.082;2023-07-09T12:23:39;5.95;;;3.75;;
52456;SDS011;38369;52.840;7.082;2023-07-09T12:26:06;5.57;;;3.58;;
52456;SDS011;38369;52.840;7.082;2023-07-09T12:28:32;6.85;;;3.42;;
52456;SDS011;38369;52.840;7.082;2023-07-09T12:30:58;4.95;;;3.10;;
52456;SDS011;38369;52.840;7.082;2023-07-09T12:33:25;6.95;;;3.05;;
52456;SDS011;38369;52.840;7.082;2023-07-09T12:35:56;5.53;;;3.33;;
52456;SDS011;38369;52.840;7.082;2023-07-09T12:38:23;6.55;;;3.92;;
52456;SDS011;38369;52.840;7.082;2023-07-09T12:40:50;7.57;;;2.97;;
52456;SDS011;38369;52.840;7.082;2023-07-09T12:43:26;4.00;;;2.80;;
52456;SDS011;38369;52.840;7.082;2023-07-09T12:45:53;6.40;;;3.60;;
52456;SDS011;38369;52.840;7.082;2023-07-09T12:48:24;6.20;;;3.97;;
52456;SDS011;38369;52.840;7.082;2023-07-09T12:50:51;4.70;;;3.80;;
52456;SDS011;38369;52.840;7.082;2023-07-09T12:53:18;6.45;;;3.50;;
52456;SDS011;38369;52.840;7.082;2023-07-09T12:55:46;8.65;;;4.13;;
52456;SDS011;38369;52.840;7.082;2023-07-09T12:58:17;7.10;;;4.72;;
52456;SDS011;38369;52.840;7.082;2023-07-09T13:00:47;7.43;;;4.00;;
52456;SDS011;38369;52.840;7.082;2023-07-09T13:03:16;7.10;;;4.45;;
52456;SDS011;38369;52.840;7.082;2023-07-09T13:05:53;5.07;;;3.33;;
52456;SDS011;38369;52.840;7.082;2023-07-09T13:08:19;5.60;;;3.85;;
52456;SDS011;38369;52.840;7.082;2023-07-09T13:10:46;7.28;;;3.33;;
52456;SDS011;38369;52.840;7.082;2023-07-09T13:13:16;6.05;;;3.88;;
52456;SDS011;38369;52.840;7.082;2023-07-09T13:15:43;4.25;;;3.40;;
52456;SDS011;38369;52.840;7.082;2023-07-09T13:18:11;7.32;;;3.38;;
52456;SDS011;38369;52.840;7.082;2023-07-09T13:20:39;6.28;;;4.10;;
52456;SDS011;38369;52.840;7.082;2023-07-09T13:25:33;5.45;;;3.33;;
52456;SDS011;38369;52.840;7.082;2023-07-09T13:27:59;6.43;;;4.20;;
52456;SDS011;38369;52.840;7.082;2023-07-09T13:30:25;7.28;;;3.65;;
52456;SDS011;38369;52.840;7.082;2023-07-09T13:32:51;6.90;;;3.50;;
52456;SDS011;38369;52.840;7.082;2023-07-09T13:35:17;5.88;;;3.90;;
52456;SDS011;38369;52.840;7.082;2023-07-09T13:37:44;4.45;;;3.72;;
52456;SDS011;38369;52.840;7.082;2023-07-09T13:40:11;6.28;;;3.60;;
52456;SDS011;38369;52.840;7.082;2023-07-09T13:42:38;7.47;;;3.97;;
52456;SDS011;38369;52.840;7.082;2023-07-09T13:45:08;5.20;;;3.85;;
52456;SDS011;38369;52.840;7.082;2023-07-09T13:47:36;6.07;;;3.67;;
52456;SDS011;38369;52.840;7.082;2023-07-09T13:50:02;5.70;;;4.45;;
52456;SDS011;38369;52.840;7.082;2023-07-09T13:52:28;7.57;;;3.42;;
52456;SDS011;38369;52.840;7.082;2023-07-09T13:54:54;4.95;;;3.47;;
52456;SDS011;38369;52.840;7.082;2023-07-09T13:57:21;6.80;;;4.60;;
52456;SDS011;38369;52.840;7.082;2023-07-09T13:59:47;6.88;;;3.63;;
52456;SDS011;38369;52.840;7.082;2023-07-09T14:02:19;9.38;;;4.05;;
52456;SDS011;38369;52.840;7.082;2023-07-09T14:04:46;7.97;;;4.50;;
52456;SDS011;38369;52.840;7.082;2023-07-09T14:07:19;8.32;;;3.92;;
52456;SDS011;38369;52.840;7.082;2023-07-09T14:09:49;5.93;;;4.10;;
52456;SDS011;38369;52.840;7.082;2023-07-09T14:12:15;9.10;;;3.88;;
52456;SDS011;38369;52.840;7.082;2023-07-09T14:14:41;11.35;;;4.80;;
52456;SDS011;38369;52.840;7.082;2023-07-09T14:17:11;5.67;;;3.83;;
52456;SDS011;38369;52.840;7.082;2023-07-09T14:19:37;8.48;;;4.25;;
52456;SDS011;38369;52.840;7.082;2023-07-09T14:22:09;10.10;;;4.25;;
52456;SDS011;38369;52.840;7.082;2023-07-09T14:24:44;6.88;;;3.80;;
52456;SDS011;38369;52.840;7.082;2023-07-09T14:27:10;4.30;;;3.65;;
52456;SDS011;38369;52.840;7.082;2023-07-09T14:29:36;6.88;;;4.32;;
52456;SDS011;38369;52.840;7.082;2023-07-09T14:32:03;7.82;;;4.60;;
52456;SDS011;38369;52.840;7.082;2023-07-09T14:34:32;10.88;;;5.63;;
52456;SDS011;38369;52.840;7.082;2023-07-09T14:36:59;7.93;;;4.45;;
52456;SDS011;38369;52.840;7.082;2023-07-09T14:39:26;8.23;;;4.28;;
52456;SDS011;38369;52.840;7.082;2023-07-09T14:41:53;5.57;;;4.25;;
52456;SDS011;38369;52.840;7.082;2023-07-09T14:44:21;7.03;;;3.85;;
52456;SDS011;38369;52.840;7.082;2023-07-09T14:46:48;7.25;;;3.75;;
52456;SDS011;38369;52.840;7.082;2023-07-09T14:49:15;6.97;;;4.10;;
52456;SDS011;38369;52.840;7.082;2023-07-09T14:51:41;7.97;;;4.60;;
52456;SDS011;38369;52.840;7.082;2023-07-09T14:54:17;4.88;;;4.25;;
52456;SDS011;38369;52.840;7.082;2023-07-09T14:56:44;6.63;;;4.30;;
52456;SDS011;38369;52.840;7.082;2023-07-09T14:59:10;8.18;;;4.50;;
52456;SDS011;38369;52.840;7.082;2023-07-09T15:01:36;9.10;;;4.40;;
52456;SDS011;38369;52.840;7.082;2023-07-09T15:06:40;7.35;;;4.90;;
52456;SDS011;38369;52.840;7.082;2023-07-09T15:09:07;9.18;;;4.57;;
52456;SDS011;38369;52.840;7.082;2023-07-09T15:11:33;6.18;;;3.95;;
52456;SDS011;38369;52.840;7.082;2023-07-09T15:13:59;14.43;;;7.30;;
52456;SDS011;38369;52.840;7.082;2023-07-09T15:16:25;13.45;;;5.30;;
52456;SDS011;38369;52.840;7.082;2023-07-09T15:18:51;9.00;;;5.22;;
52456;SDS011;38369;52.840;7.082;2023-07-09T15:21:17;7.85;;;4.30;;
52456;SDS011;38369;52.840;7.082;2023-07-09T15:23:43;7.28;;;4.45;;
52456;SDS011;38369;52.840;7.082;2023-07-09T15:26:13;8.85;;;4.10;;
52456;SDS011;38369;52.840;7.082;2023-07-09T15:28:39;15.32;;;7.38;;
52456;SDS011;38369;52.840;7.082;2023-07-09T15:31:09;16.40;;;7.97;;
52456;SDS011;38369;52.840;7.082;2023-07-09T15:33:35;6.20;;;4.35;;
52456;SDS011;38369;52.840;7.082;2023-07-09T15:36:04;13.18;;;5.57;;
52456;SDS011;38369;52.840;7.082;2023-07-09T15:38:34;12.20;;;4.97;;
52456;SDS011;38369;52.840;7.082;2023-07-09T15:41:00;10.63;;;4.28;;